sensor_id;sensor_type;location;lat;lon;timestamp;pressure;altitude;pressure_sealevel;temperature;humidity
59435;BME280;45241;49.768;8.636;2023-01-10T00:00:28;99845.94;;;8.84;93.52
59435;BME280;45241;49.768;8.636;2023-01-10T00:03:06;99848.50;;;8.92;93.26
59435;BME280;45241;49.768;8.636;2023-01-10T00:05:33;99852.13;;;9.27;92.85
59435;BME280;45241;49.768;8.636;2023-01-10T00:07:59;99859.75;;;9.45;92.30
59435;BME280;45241;49.768;8.636;2023-01-10T00:10:26;99858.25;;;9.21;92.83
59435;BME280;45241;49.768;8.636;2023-01-10T00:12:51;99859.28;;;9.20;92.27
59435;BME280;45241;49.768;8.636;2023-01-10T00:15:35;99855.38;;;9.01;93.94
59435;BME280;45241;49.768;8.636;2023-01-10T00:18:01;99860.03;;;8.56;97.26
59435;BME280;45241;49.768;8.636;2023-01-10T00:20:27;99858.44;;;8.98;94.43
59435;BME280;45241;49.768;8.636;2023-01-10T00:22:52;99857.78;;;9.17;93.50
59435;BME280;45241;49.768;8.636;2023-01-10T00:25:18;99863.41;;;8.65;94.92
59435;BME280;45241;49.768;8.636;2023-01-10T00:27:45;99871.34;;;8.94;95.33
59435;BME280;45241;49.768;8.636;2023-01-10T00:30:14;99882.69;;;8.96;93.34
59435;BME280;45241;49.768;8.636;2023-01-10T00:32:43;99895.09;;;9.04;94.78
59435;BME280;45241;49.768;8.636;2023-01-10T00:35:09;99889.88;;;8.60;96.16
59435;BME280;45241;49.768;8.636;2023-01-10T00:37:36;99890.56;;;8.83;94.03
59435;BME280;45241;49.768;8.636;2023-01-10T00:40:01;99897.34;;;8.35;96.74
59435;BME280;45241;49.768;8.636;2023-01-10T00:42:27;99906.31;;;9.14;93.82
59435;BME280;45241;49.768;8.636;2023-01-10T00:45:10;99920.09;;;9.32;91.78
59435;BME280;45241;49.768;8.636;2023-01-10T00:47:36;99922.16;;;9.16;91.55
59435;BME280;45241;49.768;8.636;2023-01-10T00:50:02;99921.03;;;8.89;92.78
59435;BME280;45241;49.768;8.636;2023-01-10T00:52:30;99931.22;;;8.78;93.54
59435;BME280;45241;49.768;8.636;2023-01-10T00:54:55;99934.78;;;9.22;92.06
59435;BME280;45241;49.768;8.636;2023-01-10T00:57:20;99945.53;;;8.56;93.02
59435;BME280;45241;49.768;8.636;2023-01-10T00:59:46;99952.91;;;9.05;92.03
59435;BME280;45241;49.768;8.636;2023-01-10T01:02:11;99966.78;;;8.64;93.24
59435;BME280;45241;49.768;8.636;2023-01-10T01:04:36;99963.63;;;9.05;90.67
59435;BME280;45241;49.768;8.636;2023-01-10T01:07:02;99973.41;;;8.83;91.61
59435;BME280;45241;49.768;8.636;2023-01-10T01:09:28;99990.84;;;8.49;91.78
59435;BME280;45241;49.768;8.636;2023-01-10T01:11:54;100001.81;;;8.69;93.05
59435;BME280;45241;49.768;8.636;2023-01-10T01:14:21;100006.47;;;8.23;94.02
59435;BME280;45241;49.768;8.636;2023-01-10T01:16:46;100015.09;;;8.92;90.87
59435;BME280;45241;49.768;8.636;2023-01-10T01:19:11;100026.13;;;8.45;91.60
59435;BME280;45241;49.768;8.636;2023-01-10T01:21:37;100036.56;;;8.69;91.39
59435;BME280;45241;49.768;8.636;2023-01-10T01:24:02;100038.09;;;8.64;92.39
59435;BME280;45241;49.768;8.636;2023-01-10T01:26:27;100045.72;;;8.52;92.60
59435;BME280;45241;49.768;8.636;2023-01-10T01:28:53;100061.69;;;8.45;93.81
59435;BME280;45241;49.768;8.636;2023-01-10T01:31:18;100061.06;;;8.58;92.35
59435;BME280;45241;49.768;8.636;2023-01-10T01:33:44;100067.66;;;8.47;92.53
59435;BME280;45241;49.768;8.636;2023-01-10T01:36:11;100079.25;;;8.02;93.89
59435;BME280;45241;49.768;8.636;2023-01-10T01:38:38;100087.31;;;8.17;94.92
59435;BME280;45241;49.768;8.636;2023-01-10T01:41:04;100101.28;;;8.42;92.90
59435;BME280;45241;49.768;8.636;2023-01-10T01:44:05;100110.75;;;8.30;92.38
59435;BME280;45241;49.768;8.636;2023-01-10T01:46:31;100120.25;;;8.47;91.85
59435;BME280;45241;49.768;8.636;2023-01-10T01:48:58;100126.06;;;8.50;91.27
59435;BME280;45241;49.768;8.636;2023-01-10T01:51:26;100133.56;;;8.55;89.91
59435;BME280;45241;49.768;8.636;2023-01-10T01:53:57;100135.69;;;8.37;90.15
59435;BME280;45241;49.768;8.636;2023-01-10T01:56:34;100151.31;;;8.48;89.95
59435;BME280;45241;49.768;8.636;2023-01-10T01:59:12;100153.84;;;8.64;90.12
59435;BME280;45241;49.768;8.636;2023-01-10T02:01:41;100158.25;;;8.95;89.06
59435;BME280;45241;49.768;8.636;2023-01-10T02:04:11;100174.06;;;8.82;89.26
59435;BME280;45241;49.768;8.636;2023-01-10T02:06:37;100170.97;;;8.93;88.31
59435;BME280;45241;49.768;8.636;2023-01-10T02:09:26;100171.31;;;8.52;89.23
59435;BME280;45241;49.768;8.636;2023-01-10T02:11:53;100176.91;;;8.19;88.46
59435;BME280;45241;49.768;8.636;2023-01-10T02:14:19;100178.38;;;8.68;88.69
59435;BME280;45241;49.768;8.636;2023-01-10T02:16:45;100181.88;;;8.68;88.13
59435;BME280;45241;49.768;8.636;2023-01-10T02:19:28;100190.81;;;8.75;86.53
59435;BME280;45241;49.768;8.636;2023-01-10T02:25:26;100188.66;;;8.94;85.79
59435;BME280;45241;49.768;8.636;2023-01-10T02:36:51;100194.22;;;8.69;85.89
59435;BME280;45241;49.768;8.636;2023-01-10T02:42:03;100200.81;;;8.82;85.98
59435;BME280;45241;49.768;8.636;2023-01-10T02:45:14;100211.16;;;8.39;87.98
59435;BME280;45241;49.768;8.636;2023-01-10T02:47:41;100213.16;;;8.83;84.90
59435;BME280;45241;49.768;8.636;2023-01-10T02:52:59;100221.34;;;8.81;84.18
59435;BME280;45241;49.768;8.636;2023-01-10T02:55:37;100221.53;;;8.79;84.39
59435;BME280;45241;49.768;8.636;2023-01-10T03:01:16;100227.94;;;8.93;83.53
59435;BME280;45241;49.768;8.636;2023-01-10T03:06:50;100234.00;;;8.87;85.92
59435;BME280;45241;49.768;8.636;2023-01-10T03:09:32;100239.03;;;9.05;84.96
59435;BME280;45241;49.768;8.636;2023-01-10T03:12:12;100238.63;;;8.93;85.32
59435;BME280;45241;49.768;8.636;2023-01-10T03:14:41;100243.75;;;8.57;87.61
59435;BME280;45241;49.768;8.636;2023-01-10T03:17:09;100245.28;;;8.74;85.75
59435;BME280;45241;49.768;8.636;2023-01-10T03:19:45;100245.00;;;8.69;83.94
59435;BME280;45241;49.768;8.636;2023-01-10T03:22:13;100257.16;;;8.72;83.31
59435;BME280;45241;49.768;8.636;2023-01-10T03:24:41;100250.59;;;8.60;84.66
59435;BME280;45241;49.768;8.636;2023-01-10T03:27:28;100254.97;;;8.30;85.20
59435;BME280;45241;49.768;8.636;2023-01-10T03:32:59;100265.50;;;8.54;83.00
59435;BME280;45241;49.768;8.636;2023-01-10T03:35:41;100273.59;;;8.38;84.33
59435;BME280;45241;49.768;8.636;2023-01-10T03:38:20;100283.53;;;8.52;83.12
59435;BME280;45241;49.768;8.636;2023-01-10T03:40:58;100283.06;;;8.17;81.59
59435;BME280;45241;49.768;8.636;2023-01-10T03:43:46;100289.41;;;8.16;83.42
59435;BME280;45241;49.768;8.636;2023-01-10T03:46:36;100300.41;;;8.53;83.69
59435;BME280;45241;49.768;8.636;2023-01-10T03:49:05;100301.75;;;8.48;83.48
59435;BME280;45241;49.768;8.636;2023-01-10T03:51:32;100310.66;;;8.41;83.51
59435;BME280;45241;49.768;8.636;2023-01-10T03:54:00;100315.28;;;7.69;88.48
59435;BME280;45241;49.768;8.636;2023-01-10T03:56:26;100316.19;;;8.00;85.88
59435;BME280;45241;49.768;8.636;2023-01-10T03:58:52;100314.75;;;8.20;85.39
59435;BME280;45241;49.768;8.636;2023-01-10T04:01:17;100324.56;;;7.81;85.95
59435;BME280;45241;49.768;8.636;2023-01-10T04:03:43;100325.06;;;8.32;84.03
59435;BME280;45241;49.768;8.636;2023-01-10T04:06:08;100333.47;;;8.12;83.98
59435;BME280;45241;49.768;8.636;2023-01-10T04:08:33;100322.22;;;8.33;83.77
59435;BME280;45241;49.768;8.636;2023-01-10T04:10:59;100330.44;;;8.24;83.73
59435;BME280;45241;49.768;8.636;2023-01-10T04:13:24;100349.44;;;8.29;83.13
59435;BME280;45241;49.768;8.636;2023-01-10T04:15:49;100346.16;;;8.10;83.84
59435;BME280;45241;49.768;8.636;2023-01-10T04:18:15;100349.28;;;8.22;83.23
59435;BME280;45241;49.768;8.636;2023-01-10T04:20:41;100363.44;;;7.92;84.69
59435;BME280;45241;49.768;8.636;2023-01-10T04:23:06;100363.16;;;8.57;83.69
59435;BME280;45241;49.768;8.636;2023-01-10T04:25:31;100369.59;;;7.92;87.13
59435;BME280;45241;49.768;8.636;2023-01-10T04:27:57;100375.34;;;8.12;83.98
59435;BME280;45241;49.768;8.636;2023-01-10T04:30:22;100373.78;;;8.65;82.62
59435;BME280;45241;49.768;8.636;2023-01-10T04:32:47;100380.03;;;8.57;83.25
59435;BME280;45241;49.768;8.636;2023-01-10T04:35:12;100387.88;;;8.59;83.12
59435;BME280;45241;49.768;8.636;2023-01-10T04:37:38;100393.31;;;8.73;83.58
59435;BME280;45241;49.768;8.636;2023-01-10T04:40:04;100391.19;;;8.30;83.43
59435;BME280;45241;49.768;8.636;2023-01-10T04:42:29;100390.34;;;8.68;82.80
59435;BME280;45241;49.768;8.636;2023-01-10T04:44:54;100391.72;;;8.09;85.07
59435;BME280;45241;49.768;8.636;2023-01-10T04:47:20;100400.31;;;7.88;85.70
59435;BME280;45241;49.768;8.636;2023-01-10T04:49:45;100402.50;;;8.40;85.03
59435;BME280;45241;49.768;8.636;2023-01-10T04:52:11;100397.00;;;8.25;84.57
59435;BME280;45241;49.768;8.636;2023-01-10T04:54:36;100392.91;;;7.98;84.53
59435;BME280;45241;49.768;8.636;2023-01-10T04:57:01;100403.19;;;8.26;85.43
59435;BME280;45241;49.768;8.636;2023-01-10T04:59:27;100408.34;;;8.35;85.21
59435;BME280;45241;49.768;8.636;2023-01-10T05:01:52;100415.88;;;8.32;84.83
59435;BME280;45241;49.768;8.636;2023-01-10T05:04:17;100415.59;;;8.10;86.01
59435;BME280;45241;49.768;8.636;2023-01-10T05:06:42;100422.78;;;8.57;84.76
59435;BME280;45241;49.768;8.636;2023-01-10T05:09:08;100427.25;;;8.17;85.97
59435;BME280;45241;49.768;8.636;2023-01-10T05:11:34;100432.84;;;8.47;84.44
59435;BME280;45241;49.768;8.636;2023-01-10T05:13:59;100430.97;;;8.56;84.11
59435;BME280;45241;49.768;8.636;2023-01-10T05:16:24;100432.75;;;8.63;83.26
59435;BME280;45241;49.768;8.636;2023-01-10T05:18:50;100435.97;;;8.59;83.97
59435;BME280;45241;49.768;8.636;2023-01-10T05:21:15;100441.59;;;8.25;85.29
59435;BME280;45241;49.768;8.636;2023-01-10T05:23:41;100447.31;;;8.61;84.10
59435;BME280;45241;49.768;8.636;2023-01-10T05:26:18;100457.06;;;8.45;84.25
59435;BME280;45241;49.768;8.636;2023-01-10T05:28:44;100453.63;;;8.20;85.52
59435;BME280;45241;49.768;8.636;2023-01-10T05:31:16;100461.88;;;8.50;84.93
59435;BME280;45241;49.768;8.636;2023-01-10T05:33:45;100460.81;;;8.12;86.33
59435;BME280;45241;49.768;8.636;2023-01-10T05:36:11;100458.28;;;8.27;86.62
59435;BME280;45241;49.768;8.636;2023-01-10T05:38:36;100457.31;;;8.11;86.83
59435;BME280;45241;49.768;8.636;2023-01-10T05:41:02;100455.50;;;7.96;86.71
59435;BME280;45241;49.768;8.636;2023-01-10T05:43:27;100461.16;;;8.09;86.70
59435;BME280;45241;49.768;8.636;2023-01-10T05:45:53;100459.97;;;8.19;86.68
59435;BME280;45241;49.768;8.636;2023-01-10T05:48:18;100474.03;;;7.81;87.93
59435;BME280;45241;49.768;8.636;2023-01-10T05:50:44;100468.28;;;8.25;86.74
59435;BME280;45241;49.768;8.636;2023-01-10T05:53:10;100464.16;;;8.14;86.77
59435;BME280;45241;49.768;8.636;2023-01-10T05:55:35;100468.22;;;8.49;85.26
59435;BME280;45241;49.768;8.636;2023-01-10T05:58:00;100479.50;;;8.20;86.55
59435;BME280;45241;49.768;8.636;2023-01-10T06:00:26;100476.88;;;7.87;88.08
59435;BME280;45241;49.768;8.636;2023-01-10T06:02:55;100478.31;;;8.31;85.47
59435;BME280;45241;49.768;8.636;2023-01-10T06:05:22;100484.13;;;8.34;85.72
59435;BME280;45241;49.768;8.636;2023-01-10T06:07:47;100491.97;;;8.44;85.45
59435;BME280;45241;49.768;8.636;2023-01-10T06:10:13;100503.41;;;7.89;86.85
59435;BME280;45241;49.768;8.636;2023-01-10T06:12:39;100515.41;;;7.77;88.99
59435;BME280;45241;49.768;8.636;2023-01-10T06:15:05;100513.06;;;7.98;87.48
59435;BME280;45241;49.768;8.636;2023-01-10T06:17:31;100509.88;;;8.11;87.28
59435;BME280;45241;49.768;8.636;2023-01-10T06:19:56;100525.91;;;7.70;88.38
59435;BME280;45241;49.768;8.636;2023-01-10T06:22:22;100523.41;;;7.85;89.06
59435;BME280;45241;49.768;8.636;2023-01-10T06:24:47;100528.25;;;7.98;87.97
59435;BME280;45241;49.768;8.636;2023-01-10T06:27:12;100533.28;;;8.01;88.17
59435;BME280;45241;49.768;8.636;2023-01-10T06:29:38;100550.75;;;7.63;88.77
59435;BME280;45241;49.768;8.636;2023-01-10T06:32:03;100552.63;;;8.03;88.99
59435;BME280;45241;49.768;8.636;2023-01-10T06:34:28;100549.78;;;7.96;88.38
59435;BME280;45241;49.768;8.636;2023-01-10T06:36:54;100550.78;;;8.28;86.94
59435;BME280;45241;49.768;8.636;2023-01-10T06:39:19;100548.94;;;8.04;87.43
59435;BME280;45241;49.768;8.636;2023-01-10T06:41:44;100551.78;;;8.18;87.30
59435;BME280;45241;49.768;8.636;2023-01-10T06:44:09;100548.28;;;8.26;87.31
59435;BME280;45241;49.768;8.636;2023-01-10T06:46:35;100556.78;;;8.05;88.56
59435;BME280;45241;49.768;8.636;2023-01-10T06:49:00;100556.78;;;8.30;87.71
59435;BME280;45241;49.768;8.636;2023-01-10T06:51:25;100572.13;;;7.95;89.49
59435;BME280;45241;49.768;8.636;2023-01-10T06:53:51;100591.94;;;7.68;90.55
59435;BME280;45241;49.768;8.636;2023-01-10T06:56:16;100605.50;;;7.91;88.74
59435;BME280;45241;49.768;8.636;2023-01-10T06:58:41;100608.00;;;8.25;88.22
59435;BME280;45241;49.768;8.636;2023-01-10T07:01:12;100609.88;;;8.16;87.61
59435;BME280;45241;49.768;8.636;2023-01-10T07:03:38;100612.16;;;7.79;89.26
59435;BME280;45241;49.768;8.636;2023-01-10T07:06:05;100605.16;;;8.10;88.39
59435;BME280;45241;49.768;8.636;2023-01-10T07:08:41;100589.81;;;8.37;87.11
59435;BME280;45241;49.768;8.636;2023-01-10T07:11:08;100595.16;;;8.45;86.17
59435;BME280;45241;49.768;8.636;2023-01-10T07:13:34;100591.50;;;8.30;86.93
59435;BME280;45241;49.768;8.636;2023-01-10T07:16:03;100606.16;;;7.93;87.86
59435;BME280;45241;49.768;8.636;2023-01-10T07:18:29;100610.69;;;8.01;87.13
59435;BME280;45241;49.768;8.636;2023-01-10T07:20:54;100622.66;;;7.80;87.90
59435;BME280;45241;49.768;8.636;2023-01-10T07:23:20;100640.38;;;7.98;88.88
59435;BME280;45241;49.768;8.636;2023-01-10T07:25:45;100642.38;;;7.96;89.00
59435;BME280;45241;49.768;8.636;2023-01-10T07:28:10;100636.91;;;8.13;86.95
59435;BME280;45241;49.768;8.636;2023-01-10T07:30:36;100645.91;;;8.04;87.01
59435;BME280;45241;49.768;8.636;2023-01-10T07:33:01;100665.13;;;7.57;89.04
59435;BME280;45241;49.768;8.636;2023-01-10T07:35:28;100671.19;;;7.84;88.04
59435;BME280;45241;49.768;8.636;2023-01-10T07:37:57;100672.94;;;8.17;86.96
59435;BME280;45241;49.768;8.636;2023-01-10T07:40:22;100669.00;;;7.63;90.27
59435;BME280;45241;49.768;8.636;2023-01-10T07:42:48;100666.78;;;7.58;88.90
59435;BME280;45241;49.768;8.636;2023-01-10T07:45:14;100649.72;;;7.94;87.32
59435;BME280;45241;49.768;8.636;2023-01-10T07:47:39;100668.22;;;7.95;87.53
59435;BME280;45241;49.768;8.636;2023-01-10T07:50:05;100675.41;;;7.95;87.40
59435;BME280;45241;49.768;8.636;2023-01-10T07:52:32;100681.78;;;8.10;86.43
59435;BME280;45241;49.768;8.636;2023-01-10T07:54:57;100687.88;;;7.86;88.08
59435;BME280;45241;49.768;8.636;2023-01-10T07:57:22;100683.84;;;7.66;88.97
59435;BME280;45241;49.768;8.636;2023-01-10T07:59:48;100686.63;;;7.56;87.82
59435;BME280;45241;49.768;8.636;2023-01-10T08:02:13;100690.78;;;7.50;89.44
59435;BME280;45241;49.768;8.636;2023-01-10T08:04:38;100705.59;;;7.45;89.24
59435;BME280;45241;49.768;8.636;2023-01-10T08:07:04;100710.16;;;7.60;88.89
59435;BME280;45241;49.768;8.636;2023-01-10T08:09:29;100701.31;;;8.02;86.82
59435;BME280;45241;49.768;8.636;2023-01-10T08:11:54;100704.56;;;7.80;87.07
59435;BME280;45241;49.768;8.636;2023-01-10T08:14:19;100706.91;;;7.83;86.70
59435;BME280;45241;49.768;8.636;2023-01-10T08:16:45;100703.91;;;7.78;87.22
59435;BME280;45241;49.768;8.636;2023-01-10T08:19:13;100707.69;;;7.67;86.90
59435;BME280;45241;49.768;8.636;2023-01-10T08:21:41;100711.06;;;7.85;86.64
59435;BME280;45241;49.768;8.636;2023-01-10T08:24:06;100706.59;;;7.94;86.24
59435;BME280;45241;49.768;8.636;2023-01-10T08:26:32;100715.63;;;7.93;86.07
59435;BME280;45241;49.768;8.636;2023-01-10T08:28:57;100714.91;;;7.75;86.91
59435;BME280;45241;49.768;8.636;2023-01-10T08:31:23;100712.19;;;7.67;86.44
59435;BME280;45241;49.768;8.636;2023-01-10T08:33:48;100716.41;;;7.35;87.21
59435;BME280;45241;49.768;8.636;2023-01-10T08:36:15;100724.88;;;7.65;86.85
59435;BME280;45241;49.768;8.636;2023-01-10T08:38:41;100728.25;;;7.75;86.59
59435;BME280;45241;49.768;8.636;2023-01-10T08:41:06;100732.38;;;7.69;86.51
59435;BME280;45241;49.768;8.636;2023-01-10T08:43:32;100730.59;;;7.78;86.70
59435;BME280;45241;49.768;8.636;2023-01-10T08:45:57;100736.72;;;7.70;87.24
59435;BME280;45241;49.768;8.636;2023-01-10T08:48:22;100740.00;;;7.56;87.65
59435;BME280;45241;49.768;8.636;2023-01-10T08:50:47;100753.13;;;7.83;87.93
59435;BME280;45241;49.768;8.636;2023-01-10T08:53:13;100747.38;;;7.70;87.06
59435;BME280;45241;49.768;8.636;2023-01-10T08:55:38;100757.81;;;7.89;86.27
59435;BME280;45241;49.768;8.636;2023-01-10T08:58:03;100756.84;;;7.56;85.94
59435;BME280;45241;49.768;8.636;2023-01-10T09:00:29;100755.53;;;8.03;85.32
59435;BME280;45241;49.768;8.636;2023-01-10T09:02:54;100752.00;;;7.94;84.33
59435;BME280;45241;49.768;8.636;2023-01-10T09:05:19;100747.38;;;7.70;84.87
59435;BME280;45241;49.768;8.636;2023-01-10T09:07:45;100746.22;;;7.65;86.75
59435;BME280;45241;49.768;8.636;2023-01-10T09:10:10;100753.50;;;7.88;84.78
59435;BME280;45241;49.768;8.636;2023-01-10T09:12:36;100764.91;;;7.73;86.04
59435;BME280;45241;49.768;8.636;2023-01-10T09:15:24;100766.75;;;8.23;84.26
59435;BME280;45241;49.768;8.636;2023-01-10T09:17:53;100771.47;;;7.86;85.31
59435;BME280;45241;49.768;8.636;2023-01-10T09:20:19;100768.88;;;8.11;83.97
59435;BME280;45241;49.768;8.636;2023-01-10T09:22:44;100777.06;;;8.09;84.11
59435;BME280;45241;49.768;8.636;2023-01-10T09:25:09;100783.97;;;8.36;81.95
59435;BME280;45241;49.768;8.636;2023-01-10T09:27:35;100784.31;;;8.33;82.13
59435;BME280;45241;49.768;8.636;2023-01-10T09:30:00;100792.75;;;8.04;83.73
59435;BME280;45241;49.768;8.636;2023-01-10T09:32:26;100791.63;;;8.15;82.06
59435;BME280;45241;49.768;8.636;2023-01-10T09:34:51;100791.78;;;8.22;83.08
59435;BME280;45241;49.768;8.636;2023-01-10T09:37:16;100799.03;;;8.45;81.85
59435;BME280;45241;49.768;8.636;2023-01-10T09:39:42;100797.34;;;8.36;82.30
59435;BME280;45241;49.768;8.636;2023-01-10T09:44:49;100805.34;;;8.36;81.01
59435;BME280;45241;49.768;8.636;2023-01-10T09:47:28;100802.44;;;8.05;81.92
59435;BME280;45241;49.768;8.636;2023-01-10T09:52:43;100816.72;;;8.30;79.89
59435;BME280;45241;49.768;8.636;2023-01-10T09:55:28;100814.66;;;8.24;80.45
59435;BME280;45241;49.768;8.636;2023-01-10T09:57:57;100815.88;;;8.30;79.56
59435;BME280;45241;49.768;8.636;2023-01-10T10:00:38;100812.06;;;8.40;79.90
59435;BME280;45241;49.768;8.636;2023-01-10T10:03:19;100809.53;;;8.39;78.03
59435;BME280;45241;49.768;8.636;2023-01-10T10:05:46;100812.09;;;8.57;78.36
59435;BME280;45241;49.768;8.636;2023-01-10T10:08:15;100808.94;;;8.53;78.65
59435;BME280;45241;49.768;8.636;2023-01-10T10:10:56;100814.63;;;8.74;77.80
59435;BME280;45241;49.768;8.636;2023-01-10T10:13:37;100815.94;;;8.54;79.72
59435;BME280;45241;49.768;8.636;2023-01-10T10:19:11;100816.97;;;8.86;77.28
59435;BME280;45241;49.768;8.636;2023-01-10T10:24:19;100806.47;;;8.92;78.15
59435;BME280;45241;49.768;8.636;2023-01-10T10:26:58;100803.06;;;8.58;79.96
59435;BME280;45241;49.768;8.636;2023-01-10T10:29:48;100810.25;;;8.57;77.82
59435;BME280;45241;49.768;8.636;2023-01-10T10:35:11;100807.59;;;8.73;77.11
59435;BME280;45241;49.768;8.636;2023-01-10T10:37:41;100810.63;;;8.95;77.89
59435;BME280;45241;49.768;8.636;2023-01-10T10:42:41;100810.97;;;8.84;77.26
59435;BME280;45241;49.768;8.636;2023-01-10T10:45:34;100818.97;;;9.00;76.92
59435;BME280;45241;49.768;8.636;2023-01-10T10:48:17;100811.97;;;8.83;78.20
59435;BME280;45241;49.768;8.636;2023-01-10T10:50:53;100814.50;;;8.92;77.14
59435;BME280;45241;49.768;8.636;2023-01-10T10:53:22;100808.09;;;8.61;77.93
59435;BME280;45241;49.768;8.636;2023-01-10T10:55:47;100809.75;;;8.78;77.61
59435;BME280;45241;49.768;8.636;2023-01-10T10:58:13;100794.59;;;9.19;76.92
59435;BME280;45241;49.768;8.636;2023-01-10T11:00:39;100801.59;;;9.04;77.79
59435;BME280;45241;49.768;8.636;2023-01-10T11:05:49;100804.25;;;9.04;77.08
59435;BME280;45241;49.768;8.636;2023-01-10T11:08:16;100798.56;;;8.74;76.44
59435;BME280;45241;49.768;8.636;2023-01-10T11:10:46;100805.25;;;8.62;77.03
59435;BME280;45241;49.768;8.636;2023-01-10T11:13:39;100815.47;;;8.67;77.15
59435;BME280;45241;49.768;8.636;2023-01-10T11:16:03;100811.94;;;8.91;77.19
59435;BME280;45241;49.768;8.636;2023-01-10T11:18:30;100814.63;;;8.83;77.59
59435;BME280;45241;49.768;8.636;2023-01-10T11:21:02;100809.09;;;8.60;77.99
59435;BME280;45241;49.768;8.636;2023-01-10T11:26:38;100799.22;;;8.52;77.85
59435;BME280;45241;49.768;8.636;2023-01-10T11:31:34;100789.91;;;8.72;76.82
59435;BME280;45241;49.768;8.636;2023-01-10T11:34:04;100789.06;;;8.88;76.82
59435;BME280;45241;49.768;8.636;2023-01-10T11:37:16;100791.09;;;8.94;77.20
59435;BME280;45241;49.768;8.636;2023-01-10T11:39:36;100795.59;;;9.18;76.10
59435;BME280;45241;49.768;8.636;2023-01-10T11:44:49;100794.56;;;9.52;74.85
59435;BME280;45241;49.768;8.636;2023-01-10T11:47:15;100796.41;;;9.11;76.97
59435;BME280;45241;49.768;8.636;2023-01-10T11:49:45;100789.03;;;9.29;75.74
59435;BME280;45241;49.768;8.636;2023-01-10T11:52:24;100793.56;;;9.12;76.82
59435;BME280;45241;49.768;8.636;2023-01-10T11:54:52;100795.75;;;9.08;76.88
59435;BME280;45241;49.768;8.636;2023-01-10T11:57:23;100790.91;;;9.20;76.66
59435;BME280;45241;49.768;8.636;2023-01-10T11:59:54;100791.59;;;9.06;77.12
59435;BME280;45241;49.768;8.636;2023-01-10T12:04:54;100789.56;;;8.84;80.05
59435;BME280;45241;49.768;8.636;2023-01-10T12:07:21;100784.25;;;8.92;78.46
59435;BME280;45241;49.768;8.636;2023-01-10T12:10:00;100777.88;;;9.09;78.00
59435;BME280;45241;49.768;8.636;2023-01-10T12:12:32;100766.81;;;9.12;78.21
59435;BME280;45241;49.768;8.636;2023-01-10T12:15:01;100769.50;;;9.20;77.60
59435;BME280;45241;49.768;8.636;2023-01-10T12:17:44;100769.00;;;9.00;77.97
59435;BME280;45241;49.768;8.636;2023-01-10T12:20:12;100768.84;;;8.86;78.61
59435;BME280;45241;49.768;8.636;2023-01-10T12:22:40;100771.16;;;9.21;77.73
59435;BME280;45241;49.768;8.636;2023-01-10T12:25:29;100765.47;;;9.16;78.45
59435;BME280;45241;49.768;8.636;2023-01-10T12:27:57;100765.31;;;9.01;79.25
59435;BME280;45241;49.768;8.636;2023-01-10T12:30:30;100762.84;;;8.84;77.27
59435;BME280;45241;49.768;8.636;2023-01-10T12:33:00;100761.13;;;9.15;76.36
59435;BME280;45241;49.768;8.636;2023-01-10T12:35:41;100764.63;;;9.16;77.47
59435;BME280;45241;49.768;8.636;2023-01-10T12:41:18;100771.66;;;9.17;76.30
59435;BME280;45241;49.768;8.636;2023-01-10T12:44:23;100756.41;;;9.58;74.88
59435;BME280;45241;49.768;8.636;2023-01-10T12:46:57;100763.69;;;9.80;72.60
59435;BME280;45241;49.768;8.636;2023-01-10T12:49:34;100756.78;;;9.30;72.58
59435;BME280;45241;49.768;8.636;2023-01-10T12:52:10;100777.53;;;9.20;73.14
59435;BME280;45241;49.768;8.636;2023-01-10T12:54:38;100769.16;;;9.31;72.89
59435;BME280;45241;49.768;8.636;2023-01-10T12:57:21;100760.13;;;9.24;74.02
59435;BME280;45241;49.768;8.636;2023-01-10T12:59:48;100760.47;;;9.13;73.63
59435;BME280;45241;49.768;8.636;2023-01-10T13:02:17;100755.09;;;9.46;73.54
59435;BME280;45241;49.768;8.636;2023-01-10T13:04:47;100764.16;;;9.45;74.42
59435;BME280;45241;49.768;8.636;2023-01-10T13:07:14;100749.91;;;9.36;72.71
59435;BME280;45241;49.768;8.636;2023-01-10T13:09:41;100757.28;;;9.26;74.32
59435;BME280;45241;49.768;8.636;2023-01-10T13:12:15;100757.44;;;9.24;74.53
59435;BME280;45241;49.768;8.636;2023-01-10T13:15:00;100751.00;;;9.66;74.08
59435;BME280;45241;49.768;8.636;2023-01-10T13:22:49;100748.56;;;9.48;73.65
59435;BME280;45241;49.768;8.636;2023-01-10T13:25:42;100760.66;;;9.12;73.47
59435;BME280;45241;49.768;8.636;2023-01-10T13:28:18;100738.72;;;9.32;73.35
59435;BME280;45241;49.768;8.636;2023-01-10T13:30:50;100751.56;;;9.37;73.36
59435;BME280;45241;49.768;8.636;2023-01-10T13:33:25;100760.47;;;9.13;72.25
59435;BME280;45241;49.768;8.636;2023-01-10T13:35:53;100762.81;;;9.24;72.08
59435;BME280;45241;49.768;8.636;2023-01-10T13:38:46;100760.25;;;9.39;72.50
59435;BME280;45241;49.768;8.636;2023-01-10T13:41:13;100764.09;;;9.61;71.99
59435;BME280;45241;49.768;8.636;2023-01-10T13:51:20;100776.19;;;9.24;74.37
59435;BME280;45241;49.768;8.636;2023-01-10T13:56:46;100762.59;;;9.58;72.81
59435;BME280;45241;49.768;8.636;2023-01-10T14:02:16;100764.59;;;9.40;74.18
59435;BME280;45241;49.768;8.636;2023-01-10T14:05:06;100757.16;;;8.95;73.90
59435;BME280;45241;49.768;8.636;2023-01-10T14:07:51;100749.13;;;9.19;72.57
59435;BME280;45241;49.768;8.636;2023-01-10T14:10:25;100755.47;;;8.86;74.03
59435;BME280;45241;49.768;8.636;2023-01-10T14:12:56;100741.78;;;8.97;73.70
59435;BME280;45241;49.768;8.636;2023-01-10T14:15:26;100734.38;;;9.23;73.66
59435;BME280;45241;49.768;8.636;2023-01-10T14:18:02;100715.66;;;9.23;72.60
59435;BME280;45241;49.768;8.636;2023-01-10T14:20:30;100726.06;;;8.94;75.07
59435;BME280;45241;49.768;8.636;2023-01-10T14:23:17;100729.06;;;8.99;74.87
59435;BME280;45241;49.768;8.636;2023-01-10T14:25:45;100720.34;;;9.13;73.34
59435;BME280;45241;49.768;8.636;2023-01-10T14:28:22;100713.41;;;9.43;72.47
59435;BME280;45241;49.768;8.636;2023-01-10T14:31:00;100708.84;;;9.04;73.09